Aviation Digital Data Service (ADDS)

Output produced by METARs form (1226 UTC 24 January 2021)
found at http://www.aviationweather.gov/metar/data/
 
METAR text: LTFJ 241150Z 22013KT 9999 SCT030 BKN080 14/08 Q1010 NOSIG RMK RWY24 22018KT
Conditions at: LTFJ (SABIHA GOKCEN , TR) observed 1150 UTC 24 January 2021
Temperature: 14.0°C (57°F)
Dewpoint: 8.0°C (46°F) [RH = 67%]
Pressure (altimeter): 29.82 inches Hg (1010.0 mb)
Winds: from the SW (220 degrees) at 15 MPH (13 knots; 6.7 m/s)
Visibility: 6 or more miles (10+ km)
Ceiling: 8000 feet AGL
Clouds: scattered clouds at 3000 feet AGL
broken clouds at 8000 feet AGL
Weather: no significant weather observed at this time

METAR text: LTFJ 241120Z 23014KT 9999 SCT030 BKN080 13/08 Q1010 RESHRA NOSIG RMK RWY24 23014KT
Conditions at: LTFJ (SABIHA GOKCEN , TR) observed 1120 UTC 24 January 2021
Temperature: 13.0°C (55°F)
Dewpoint: 8.0°C (46°F) [RH = 72%]
Pressure (altimeter): 29.82 inches Hg (1010.0 mb)
Winds: from the SW (230 degrees) at 16 MPH (14 knots; 7.2 m/s)
Visibility: 6 or more miles (10+ km)
Ceiling: 8000 feet AGL
Clouds: scattered clouds at 3000 feet AGL
broken clouds at 8000 feet AGL
Weather: no significant weather observed at this time

METAR text: LTFJ 241050Z 23014KT 9999 -SHRA BKN030 BKN090 12/08 Q1011 NOSIG RMK RWY24 24014KT
Conditions at: LTFJ (SABIHA GOKCEN , TR) observed 1050 UTC 24 January 2021
Temperature: 12.0°C (54°F)
Dewpoint: 8.0°C (46°F) [RH = 76%]
Pressure (altimeter): 29.85 inches Hg (1011.0 mb)
Winds: from the SW (230 degrees) at 16 MPH (14 knots; 7.2 m/s)
Visibility: 6 or more miles (10+ km)
Ceiling: 3000 feet AGL
Clouds: broken clouds at 3000 feet AGL
broken clouds at 9000 feet AGL
Weather: -SHRA  (light rain showers)

METAR text: LTFJ 241020Z 24012KT 9999 -SHRA BKN030 BKN070 11/08 Q1011 NOSIG RMK RWY24 24013KT
Conditions at: LTFJ (SABIHA GOKCEN , TR) observed 1020 UTC 24 January 2021
Temperature: 11.0°C (52°F)
Dewpoint: 8.0°C (46°F) [RH = 82%]
Pressure (altimeter): 29.85 inches Hg (1011.0 mb)
Winds: from the WSW (240 degrees) at 14 MPH (12 knots; 6.2 m/s)
Visibility: 6 or more miles (10+ km)
Ceiling: 3000 feet AGL
Clouds: broken clouds at 3000 feet AGL
broken clouds at 7000 feet AGL
Weather: -SHRA  (light rain showers)

METAR text: LTFJ 240950Z 26015KT 7000 -SHRA BKN030 BKN070 10/08 Q1012 NOSIG RMK RWY24 26015KT
Conditions at: LTFJ (SABIHA GOKCEN , TR) observed 0950 UTC 24 January 2021
Temperature: 10.0°C (50°F)
Dewpoint: 8.0°C (46°F) [RH = 87%]
Pressure (altimeter): 29.88 inches Hg (1012.0 mb)
Winds: from the W (260 degrees) at 17 MPH (15 knots; 7.7 m/s)
Visibility: 4 miles ( 7 km)
Ceiling: 3000 feet AGL
Clouds: broken clouds at 3000 feet AGL
broken clouds at 7000 feet AGL
Weather: -SHRA  (light rain showers)

METAR text: LTFJ 240920Z 27013KT 6000 -SHRA FEW013 BKN030 BKN070 10/09 Q1012 RESHRA NOSIG RMK RWY24 27015KT
Conditions at: LTFJ (SABIHA GOKCEN , TR) observed 0920 UTC 24 January 2021
Temperature: 10.0°C (50°F)
Dewpoint: 9.0°C (48°F) [RH = 93%]
Pressure (altimeter): 29.88 inches Hg (1012.0 mb)
Winds: from the W (270 degrees) at 15 MPH (13 knots; 6.7 m/s)
Visibility: 4 miles ( 6 km)
Ceiling: 3000 feet AGL
Clouds: few clouds at 1300 feet AGL
broken clouds at 3000 feet AGL
broken clouds at 7000 feet AGL
Weather: -SHRA  (light rain showers)

METAR text: LTFJ 240850Z 20009KT 9999 -SHRA BKN032 BKN070 13/05 Q1011 NOSIG RMK RWY24 20010KT
Conditions at: LTFJ (SABIHA GOKCEN , TR) observed 0850 UTC 24 January 2021
Temperature: 13.0°C (55°F)
Dewpoint: 5.0°C (41°F) [RH = 58%]
Pressure (altimeter): 29.85 inches Hg (1011.0 mb)
Winds: from the SSW (200 degrees) at 10 MPH (9 knots; 4.6 m/s)
Visibility: 6 or more miles (10+ km)
Ceiling: 3200 feet AGL
Clouds: broken clouds at 3200 feet AGL
broken clouds at 7000 feet AGL
Weather: -SHRA  (light rain showers)

METAR text: LTFJ 240820Z 18002KT 9999 -SHRA SCT032 BKN070 13/05 Q1011 NOSIG RMK RWY24 19010KT
Conditions at: LTFJ (SABIHA GOKCEN , TR) observed 0820 UTC 24 January 2021
Temperature: 13.0°C (55°F)
Dewpoint: 5.0°C (41°F) [RH = 58%]
Pressure (altimeter): 29.85 inches Hg (1011.0 mb)
Winds: from the S (180 degrees) at 2 MPH (2 knots; 1.0 m/s)
Visibility: 6 or more miles (10+ km)
Ceiling: 7000 feet AGL
Clouds: scattered clouds at 3200 feet AGL
broken clouds at 7000 feet AGL
Weather: -SHRA  (light rain showers)

METAR text: LTFJ 240750Z 18014KT 9999 -SHRA SCT035 BKN070 13/05 Q1011 NOSIG RMK RWY24 19013KT
Conditions at: LTFJ (SABIHA GOKCEN , TR) observed 0750 UTC 24 January 2021
Temperature: 13.0°C (55°F)
Dewpoint: 5.0°C (41°F) [RH = 58%]
Pressure (altimeter): 29.85 inches Hg (1011.0 mb)
Winds: from the S (180 degrees) at 16 MPH (14 knots; 7.2 m/s)
Visibility: 6 or more miles (10+ km)
Ceiling: 7000 feet AGL
Clouds: scattered clouds at 3500 feet AGL
broken clouds at 7000 feet AGL
Weather: -SHRA  (light rain showers)

METAR text: LTFJ 240720Z 17009KT 9999 -SHRA SCT035 BKN070 12/05 Q1011 NOSIG RMK RWY24 18011KT
Conditions at: LTFJ (SABIHA GOKCEN , TR) observed 0720 UTC 24 January 2021
Temperature: 12.0°C (54°F)
Dewpoint: 5.0°C (41°F) [RH = 62%]
Pressure (altimeter): 29.85 inches Hg (1011.0 mb)
Winds: from the S (170 degrees) at 10 MPH (9 knots; 4.6 m/s)
Visibility: 6 or more miles (10+ km)
Ceiling: 7000 feet AGL
Clouds: scattered clouds at 3500 feet AGL
broken clouds at 7000 feet AGL
Weather: -SHRA  (light rain showers)

METAR text: LTFJ 240650Z 18009KT 160V220 9999 SCT035 BKN090 13/05 Q1010 NOSIG RMK RWY24 18007KT
Conditions at: LTFJ (SABIHA GOKCEN , TR) observed 0650 UTC 24 January 2021
Temperature: 13.0°C (55°F)
Dewpoint: 5.0°C (41°F) [RH = 58%]
Pressure (altimeter): 29.82 inches Hg (1010.0 mb)
Winds: from the S (180 degrees) at 10 MPH (9 knots; 4.6 m/s)
Visibility: 6 or more miles (10+ km)
Ceiling: 9000 feet AGL
Clouds: scattered clouds at 3500 feet AGL
broken clouds at 9000 feet AGL
Weather: no significant weather observed at this time

METAR text: LTFJ 240620Z 17011KT 9999 SCT035 BKN090 12/04 Q1010 NOSIG RMK RWY24 17012KT
Conditions at: LTFJ (SABIHA GOKCEN , TR) observed 0620 UTC 24 January 2021
Temperature: 12.0°C (54°F)
Dewpoint: 4.0°C (39°F) [RH = 58%]
Pressure (altimeter): 29.82 inches Hg (1010.0 mb)
Winds: from the S (170 degrees) at 13 MPH (11 knots; 5.7 m/s)
Visibility: 6 or more miles (10+ km)
Ceiling: 9000 feet AGL
Clouds: scattered clouds at 3500 feet AGL
broken clouds at 9000 feet AGL
Weather: no significant weather observed at this time

METAR text: LTFJ 240550Z 16014KT 9999 SCT040 BKN100 12/04 Q1010 NOSIG RMK RWY24 16014KT
Conditions at: LTFJ (SABIHA GOKCEN , TR) observed 0550 UTC 24 January 2021
Temperature: 12.0°C (54°F)
Dewpoint: 4.0°C (39°F) [RH = 58%]
Pressure (altimeter): 29.82 inches Hg (1010.0 mb)
Winds: from the SSE (160 degrees) at 16 MPH (14 knots; 7.2 m/s)
Visibility: 6 or more miles (10+ km)
Ceiling: 10000 feet AGL
Clouds: scattered clouds at 4000 feet AGL
broken clouds at 10000 feet AGL
Weather: no significant weather observed at this time

METAR text: LTFJ 240520Z 16013KT 9999 SCT040 BKN100 12/04 Q1010 NOSIG RMK RWY24 16014KT
Conditions at: LTFJ (SABIHA GOKCEN , TR) observed 0520 UTC 24 January 2021
Temperature: 12.0°C (54°F)
Dewpoint: 4.0°C (39°F) [RH = 58%]
Pressure (altimeter): 29.82 inches Hg (1010.0 mb)
Winds: from the SSE (160 degrees) at 15 MPH (13 knots; 6.7 m/s)
Visibility: 6 or more miles (10+ km)
Ceiling: 10000 feet AGL
Clouds: scattered clouds at 4000 feet AGL
broken clouds at 10000 feet AGL
Weather: no significant weather observed at this time

METAR text: LTFJ 240450Z 15012KT 9999 SCT040 BKN100 12/04 Q1011 BECMG 21015KT
Conditions at: LTFJ (SABIHA GOKCEN , TR) observed 0450 UTC 24 January 2021
Temperature: 12.0°C (54°F)
Dewpoint: 4.0°C (39°F) [RH = 58%]
Pressure (altimeter): 29.85 inches Hg (1011.0 mb)
Winds: from the SSE (150 degrees) at 14 MPH (12 knots; 6.2 m/s)
Visibility: 6 or more miles (10+ km)
Ceiling: 10000 feet AGL
Clouds: scattered clouds at 4000 feet AGL
broken clouds at 10000 feet AGL
Weather: no significant weather observed at this time

METAR text: LTFJ 240420Z 15011KT 9999 SCT040 BKN100 12/04 Q1010 NOSIG RMK RWY24 16010KT
Conditions at: LTFJ (SABIHA GOKCEN , TR) observed 0420 UTC 24 January 2021
Temperature: 12.0°C (54°F)
Dewpoint: 4.0°C (39°F) [RH = 58%]
Pressure (altimeter): 29.82 inches Hg (1010.0 mb)
Winds: from the SSE (150 degrees) at 13 MPH (11 knots; 5.7 m/s)
Visibility: 6 or more miles (10+ km)
Ceiling: 10000 feet AGL
Clouds: scattered clouds at 4000 feet AGL
broken clouds at 10000 feet AGL
Weather: no significant weather observed at this time

METAR text: LTFJ 240350Z 16010KT 9999 SCT040 BKN100 12/04 Q1010 NOSIG RMK RWY24 18009KT
Conditions at: LTFJ (SABIHA GOKCEN , TR) observed 0350 UTC 24 January 2021
Temperature: 12.0°C (54°F)
Dewpoint: 4.0°C (39°F) [RH = 58%]
Pressure (altimeter): 29.82 inches Hg (1010.0 mb)
Winds: from the SSE (160 degrees) at 12 MPH (10 knots; 5.1 m/s)
Visibility: 6 or more miles (10+ km)
Ceiling: 10000 feet AGL
Clouds: scattered clouds at 4000 feet AGL
broken clouds at 10000 feet AGL
Weather: no significant weather observed at this time

METAR text: LTFJ 240320Z 16014KT 9999 SCT040 BKN100 12/05 Q1010 NOSIG RMK RWY24 17011KT
Conditions at: LTFJ (SABIHA GOKCEN , TR) observed 0320 UTC 24 January 2021
Temperature: 12.0°C (54°F)
Dewpoint: 5.0°C (41°F) [RH = 62%]
Pressure (altimeter): 29.82 inches Hg (1010.0 mb)
Winds: from the SSE (160 degrees) at 16 MPH (14 knots; 7.2 m/s)
Visibility: 6 or more miles (10+ km)
Ceiling: 10000 feet AGL
Clouds: scattered clouds at 4000 feet AGL
broken clouds at 10000 feet AGL
Weather: no significant weather observed at this time

METAR text: LTFJ 240250Z 17011KT 9999 SCT040 BKN100 11/05 Q1011 RESHRA NOSIG RMK RWY24 17010KT
Conditions at: LTFJ (SABIHA GOKCEN , TR) observed 0250 UTC 24 January 2021
Temperature: 11.0°C (52°F)
Dewpoint: 5.0°C (41°F) [RH = 66%]
Pressure (altimeter): 29.85 inches Hg (1011.0 mb)
Winds: from the S (170 degrees) at 13 MPH (11 knots; 5.7 m/s)
Visibility: 6 or more miles (10+ km)
Ceiling: 10000 feet AGL
Clouds: scattered clouds at 4000 feet AGL
broken clouds at 10000 feet AGL
Weather: no significant weather observed at this time

METAR text: LTFJ 240220Z 17006KT 9999 -SHRA SCT040 BKN100 11/05 Q1011 NOSIG RMK RWY24 18006KT
Conditions at: LTFJ (SABIHA GOKCEN , TR) observed 0220 UTC 24 January 2021
Temperature: 11.0°C (52°F)
Dewpoint: 5.0°C (41°F) [RH = 66%]
Pressure (altimeter): 29.85 inches Hg (1011.0 mb)
Winds: from the S (170 degrees) at 7 MPH (6 knots; 3.1 m/s)
Visibility: 6 or more miles (10+ km)
Ceiling: 10000 feet AGL
Clouds: scattered clouds at 4000 feet AGL
broken clouds at 10000 feet AGL
Weather: -SHRA  (light rain showers)

METAR text: LTFJ 240150Z 17010KT 9999 -SHRA SCT040 BKN100 12/05 Q1011 NOSIG RMK RWY24 17010KT
Conditions at: LTFJ (SABIHA GOKCEN , TR) observed 0150 UTC 24 January 2021
Temperature: 12.0°C (54°F)
Dewpoint: 5.0°C (41°F) [RH = 62%]
Pressure (altimeter): 29.85 inches Hg (1011.0 mb)
Winds: from the S (170 degrees) at 12 MPH (10 knots; 5.1 m/s)
Visibility: 6 or more miles (10+ km)
Ceiling: 10000 feet AGL
Clouds: scattered clouds at 4000 feet AGL
broken clouds at 10000 feet AGL
Weather: -SHRA  (light rain showers)

METAR text: LTFJ 240120Z 20005KT 170V250 9999 SCT040 SCT100 11/04 Q1012 NOSIG RMK RWY24 20007KT
Conditions at: LTFJ (SABIHA GOKCEN , TR) observed 0120 UTC 24 January 2021
Temperature: 11.0°C (52°F)
Dewpoint: 4.0°C (39°F) [RH = 62%]
Pressure (altimeter): 29.88 inches Hg (1012.0 mb)
Winds: from the SSW (200 degrees) at 6 MPH (5 knots; 2.6 m/s)
Visibility: 6 or more miles (10+ km)
Ceiling: at least 12,000 feet AGL
Clouds: scattered clouds at 4000 feet AGL
scattered clouds at 10000 feet AGL
Weather: no significant weather observed at this time

METAR text: LTFJ 240050Z 16006KT 130V190 9999 SCT040 SCT100 11/04 Q1012 NOSIG RMK RWY24 15006KT
Conditions at: LTFJ (SABIHA GOKCEN , TR) observed 0050 UTC 24 January 2021
Temperature: 11.0°C (52°F)
Dewpoint: 4.0°C (39°F) [RH = 62%]
Pressure (altimeter): 29.88 inches Hg (1012.0 mb)
Winds: from the SSE (160 degrees) at 7 MPH (6 knots; 3.1 m/s)
Visibility: 6 or more miles (10+ km)
Ceiling: at least 12,000 feet AGL
Clouds: scattered clouds at 4000 feet AGL
scattered clouds at 10000 feet AGL
Weather: no significant weather observed at this time

METAR text: LTFJ 240020Z 17010KT 9999 FEW040 SCT100 12/04 Q1012 NOSIG RMK RWY24 17011KT
Conditions at: LTFJ (SABIHA GOKCEN , TR) observed 0020 UTC 24 January 2021
Temperature: 12.0°C (54°F)
Dewpoint: 4.0°C (39°F) [RH = 58%]
Pressure (altimeter): 29.88 inches Hg (1012.0 mb)
Winds: from the S (170 degrees) at 12 MPH (10 knots; 5.1 m/s)
Visibility: 6 or more miles (10+ km)
Ceiling: at least 12,000 feet AGL
Clouds: few clouds at 4000 feet AGL
scattered clouds at 10000 feet AGL
Weather: no significant weather observed at this time

METAR text: LTFJ 232350Z 17011KT CAVOK 12/04 Q1012 NOSIG RMK RWY24 17010KT
Conditions at: LTFJ (SABIHA GOKCEN , TR) observed 2350 UTC 23 January 2021
Temperature: 12.0°C (54°F)
Dewpoint: 4.0°C (39°F) [RH = 58%]
Pressure (altimeter): 29.88 inches Hg (1012.0 mb)
Winds: from the S (170 degrees) at 13 MPH (11 knots; 5.7 m/s)
Visibility: 6 or more miles (10+ km)
Ceiling: ceiling and visibility are OK
Clouds: unknown
Weather: no significant weather observed at this time

METAR text: LTFJ 232320Z 21004KT 180V240 CAVOK 11/05 Q1013 NOSIG RMK RWY24 18007KT
Conditions at: LTFJ (SABIHA GOKCEN , TR) observed 2320 UTC 23 January 2021
Temperature: 11.0°C (52°F)
Dewpoint: 5.0°C (41°F) [RH = 66%]
Pressure (altimeter): 29.91 inches Hg (1013.0 mb)
Winds: from the SSW (210 degrees) at 5 MPH (4 knots; 2.1 m/s)
Visibility: 6 or more miles (10+ km)
Ceiling: ceiling and visibility are OK
Clouds: unknown
Weather: no significant weather observed at this time

METAR text: LTFJ 232250Z 24005KT 200V280 CAVOK 11/05 Q1013 NOSIG RMK RWY24 20006KT 170V230
Conditions at: LTFJ (SABIHA GOKCEN , TR) observed 2250 UTC 23 January 2021
Temperature: 11.0°C (52°F)
Dewpoint: 5.0°C (41°F) [RH = 66%]
Pressure (altimeter): 29.91 inches Hg (1013.0 mb)
Winds: from the WSW (240 degrees) at 6 MPH (5 knots; 2.6 m/s)
Visibility: 6 or more miles (10+ km)
Ceiling: ceiling and visibility are OK
Clouds: unknown
Weather: no significant weather observed at this time

METAR text: LTFJ 232220Z 20006KT 160V230 CAVOK 11/05 Q1013 NOSIG RMK RWY24 20008KT
Conditions at: LTFJ (SABIHA GOKCEN , TR) observed 2220 UTC 23 January 2021
Temperature: 11.0°C (52°F)
Dewpoint: 5.0°C (41°F) [RH = 66%]
Pressure (altimeter): 29.91 inches Hg (1013.0 mb)
Winds: from the SSW (200 degrees) at 7 MPH (6 knots; 3.1 m/s)
Visibility: 6 or more miles (10+ km)
Ceiling: ceiling and visibility are OK
Clouds: unknown
Weather: no significant weather observed at this time

METAR text: LTFJ 232150Z 25005KT 220V280 CAVOK 10/05 Q1014 NOSIG RMK RWY24 27005KT 230V300
Conditions at: LTFJ (SABIHA GOKCEN , TR) observed 2150 UTC 23 January 2021
Temperature: 10.0°C (50°F)
Dewpoint: 5.0°C (41°F) [RH = 71%]
Pressure (altimeter): 29.94 inches Hg (1014.0 mb)
Winds: from the WSW (250 degrees) at 6 MPH (5 knots; 2.6 m/s)
Visibility: 6 or more miles (10+ km)
Ceiling: ceiling and visibility are OK
Clouds: unknown
Weather: no significant weather observed at this time

METAR text: LTFJ 232120Z 20003KT 170V230 CAVOK 11/04 Q1014 NOSIG RMK RWY24 22003KT 180V250
Conditions at: LTFJ (SABIHA GOKCEN , TR) observed 2120 UTC 23 January 2021
Temperature: 11.0°C (52°F)
Dewpoint: 4.0°C (39°F) [RH = 62%]
Pressure (altimeter): 29.94 inches Hg (1014.0 mb)
Winds: from the SSW (200 degrees) at 3 MPH (3 knots; 1.5 m/s)
Visibility: 6 or more miles (10+ km)
Ceiling: ceiling and visibility are OK
Clouds: unknown
Weather: no significant weather observed at this time

METAR text: LTFJ 232050Z 23004KT CAVOK 11/05 Q1014 NOSIG RMK RWY24 21005KT
Conditions at: LTFJ (SABIHA GOKCEN , TR) observed 2050 UTC 23 January 2021
Temperature: 11.0°C (52°F)
Dewpoint: 5.0°C (41°F) [RH = 66%]
Pressure (altimeter): 29.94 inches Hg (1014.0 mb)
Winds: from the SW (230 degrees) at 5 MPH (4 knots; 2.1 m/s)
Visibility: 6 or more miles (10+ km)
Ceiling: ceiling and visibility are OK
Clouds: unknown
Weather: no significant weather observed at this time

METAR text: LTFJ 232020Z 21005KT CAVOK 11/05 Q1014 NOSIG RMK RWY24 22006KT
Conditions at: LTFJ (SABIHA GOKCEN , TR) observed 2020 UTC 23 January 2021
Temperature: 11.0°C (52°F)
Dewpoint: 5.0°C (41°F) [RH = 66%]
Pressure (altimeter): 29.94 inches Hg (1014.0 mb)
Winds: from the SSW (210 degrees) at 6 MPH (5 knots; 2.6 m/s)
Visibility: 6 or more miles (10+ km)
Ceiling: ceiling and visibility are OK
Clouds: unknown
Weather: no significant weather observed at this time

METAR text: LTFJ 231950Z 23003KT CAVOK 11/05 Q1014 NOSIG RMK RWY24 23006KT
Conditions at: LTFJ (SABIHA GOKCEN , TR) observed 1950 UTC 23 January 2021
Temperature: 11.0°C (52°F)
Dewpoint: 5.0°C (41°F) [RH = 66%]
Pressure (altimeter): 29.94 inches Hg (1014.0 mb)
Winds: from the SW (230 degrees) at 3 MPH (3 knots; 1.5 m/s)
Visibility: 6 or more miles (10+ km)
Ceiling: ceiling and visibility are OK
Clouds: unknown
Weather: no significant weather observed at this time

METAR text: LTFJ 231920Z 26003KT 220V280 CAVOK 11/05 Q1015 NOSIG RMK RWY24 23006KT
Conditions at: LTFJ (SABIHA GOKCEN , TR) observed 1920 UTC 23 January 2021
Temperature: 11.0°C (52°F)
Dewpoint: 5.0°C (41°F) [RH = 66%]
Pressure (altimeter): 29.97 inches Hg (1015.0 mb)
Winds: from the W (260 degrees) at 3 MPH (3 knots; 1.5 m/s)
Visibility: 6 or more miles (10+ km)
Ceiling: ceiling and visibility are OK
Clouds: unknown
Weather: no significant weather observed at this time

METAR text: LTFJ 231850Z 22004KT 170V260 CAVOK 11/05 Q1015 NOSIG RMK RWY24 22006KT
Conditions at: LTFJ (SABIHA GOKCEN , TR) observed 1850 UTC 23 January 2021
Temperature: 11.0°C (52°F)
Dewpoint: 5.0°C (41°F) [RH = 66%]
Pressure (altimeter): 29.97 inches Hg (1015.0 mb)
Winds: from the SW (220 degrees) at 5 MPH (4 knots; 2.1 m/s)
Visibility: 6 or more miles (10+ km)
Ceiling: ceiling and visibility are OK
Clouds: unknown
Weather: no significant weather observed at this time

METAR text: LTFJ 231820Z 23004KT 200V270 CAVOK 11/05 Q1015 NOSIG RMK RWY24 18007KT
Conditions at: LTFJ (SABIHA GOKCEN , TR) observed 1820 UTC 23 January 2021
Temperature: 11.0°C (52°F)
Dewpoint: 5.0°C (41°F) [RH = 66%]
Pressure (altimeter): 29.97 inches Hg (1015.0 mb)
Winds: from the SW (230 degrees) at 5 MPH (4 knots; 2.1 m/s)
Visibility: 6 or more miles (10+ km)
Ceiling: ceiling and visibility are OK
Clouds: unknown
Weather: no significant weather observed at this time

METAR text: LTFJ 231750Z 22004KT CAVOK 11/05 Q1015 NOSIG RMK RWY24 22005KT
Conditions at: LTFJ (SABIHA GOKCEN , TR) observed 1750 UTC 23 January 2021
Temperature: 11.0°C (52°F)
Dewpoint: 5.0°C (41°F) [RH = 66%]
Pressure (altimeter): 29.97 inches Hg (1015.0 mb)
Winds: from the SW (220 degrees) at 5 MPH (4 knots; 2.1 m/s)
Visibility: 6 or more miles (10+ km)
Ceiling: ceiling and visibility are OK
Clouds: unknown
Weather: no significant weather observed at this time

METAR text: LTFJ 231720Z 21004KT CAVOK 11/05 Q1015 NOSIG RMK RWY24 21004KT
Conditions at: LTFJ (SABIHA GOKCEN , TR) observed 1720 UTC 23 January 2021
Temperature: 11.0°C (52°F)
Dewpoint: 5.0°C (41°F) [RH = 66%]
Pressure (altimeter): 29.97 inches Hg (1015.0 mb)
Winds: from the SSW (210 degrees) at 5 MPH (4 knots; 2.1 m/s)
Visibility: 6 or more miles (10+ km)
Ceiling: ceiling and visibility are OK
Clouds: unknown
Weather: no significant weather observed at this time

METAR text: LTFJ 231650Z 21003KT CAVOK 12/05 Q1016 NOSIG RMK RWY24 21006KT
Conditions at: LTFJ (SABIHA GOKCEN , TR) observed 1650 UTC 23 January 2021
Temperature: 12.0°C (54°F)
Dewpoint: 5.0°C (41°F) [RH = 62%]
Pressure (altimeter): 30.00 inches Hg (1016.0 mb)
Winds: from the SSW (210 degrees) at 3 MPH (3 knots; 1.5 m/s)
Visibility: 6 or more miles (10+ km)
Ceiling: ceiling and visibility are OK
Clouds: unknown
Weather: no significant weather observed at this time

METAR text: LTFJ 231620Z 19005KT CAVOK 13/05 Q1016 NOSIG RMK RWY24 21005KT
Conditions at: LTFJ (SABIHA GOKCEN , TR) observed 1620 UTC 23 January 2021
Temperature: 13.0°C (55°F)
Dewpoint: 5.0°C (41°F) [RH = 58%]
Pressure (altimeter): 30.00 inches Hg (1016.0 mb)
Winds: from the S (190 degrees) at 6 MPH (5 knots; 2.6 m/s)
Visibility: 6 or more miles (10+ km)
Ceiling: ceiling and visibility are OK
Clouds: unknown
Weather: no significant weather observed at this time

METAR text: LTFJ 231550Z 20004KT CAVOK 12/06 Q1016 NOSIG RMK RWY24 21004KT
Conditions at: LTFJ (SABIHA GOKCEN , TR) observed 1550 UTC 23 January 2021
Temperature: 12.0°C (54°F)
Dewpoint: 6.0°C (43°F) [RH = 67%]
Pressure (altimeter): 30.00 inches Hg (1016.0 mb)
Winds: from the SSW (200 degrees) at 5 MPH (4 knots; 2.1 m/s)
Visibility: 6 or more miles (10+ km)
Ceiling: ceiling and visibility are OK
Clouds: unknown
Weather: no significant weather observed at this time

METAR text: LTFJ 231520Z 26005KT 9999 FEW040 SCT100 12/05 Q1016 NOSIG RMK RWY24 25005KT
Conditions at: LTFJ (SABIHA GOKCEN , TR) observed 1520 UTC 23 January 2021
Temperature: 12.0°C (54°F)
Dewpoint: 5.0°C (41°F) [RH = 62%]
Pressure (altimeter): 30.00 inches Hg (1016.0 mb)
Winds: from the W (260 degrees) at 6 MPH (5 knots; 2.6 m/s)
Visibility: 6 or more miles (10+ km)
Ceiling: at least 12,000 feet AGL
Clouds: few clouds at 4000 feet AGL
scattered clouds at 10000 feet AGL
Weather: no significant weather observed at this time

METAR text: LTFJ 231450Z 20006KT 9999 FEW040 SCT100 14/04 Q1016 NOSIG RMK RWY24 19008KT
Conditions at: LTFJ (SABIHA GOKCEN , TR) observed 1450 UTC 23 January 2021
Temperature: 14.0°C (57°F)
Dewpoint: 4.0°C (39°F) [RH = 51%]
Pressure (altimeter): 30.00 inches Hg (1016.0 mb)
Winds: from the SSW (200 degrees) at 7 MPH (6 knots; 3.1 m/s)
Visibility: 6 or more miles (10+ km)
Ceiling: at least 12,000 feet AGL
Clouds: few clouds at 4000 feet AGL
scattered clouds at 10000 feet AGL
Weather: no significant weather observed at this time

METAR text: LTFJ 231420Z 21008KT 9999 FEW040 SCT100 14/04 Q1016 NOSIG RMK RWY24 20009KT
Conditions at: LTFJ (SABIHA GOKCEN , TR) observed 1420 UTC 23 January 2021
Temperature: 14.0°C (57°F)
Dewpoint: 4.0°C (39°F) [RH = 51%]
Pressure (altimeter): 30.00 inches Hg (1016.0 mb)
Winds: from the SSW (210 degrees) at 9 MPH (8 knots; 4.1 m/s)
Visibility: 6 or more miles (10+ km)
Ceiling: at least 12,000 feet AGL
Clouds: few clouds at 4000 feet AGL
scattered clouds at 10000 feet AGL
Weather: no significant weather observed at this time

METAR text: LTFJ 231350Z 20007KT 170V230 9999 FEW040 SCT100 15/04 Q1016 NOSIG RMK RWY24 20009KT
Conditions at: LTFJ (SABIHA GOKCEN , TR) observed 1350 UTC 23 January 2021
Temperature: 15.0°C (59°F)
Dewpoint: 4.0°C (39°F) [RH = 48%]
Pressure (altimeter): 30.00 inches Hg (1016.0 mb)
Winds: from the SSW (200 degrees) at 8 MPH (7 knots; 3.6 m/s)
Visibility: 6 or more miles (10+ km)
Ceiling: at least 12,000 feet AGL
Clouds: few clouds at 4000 feet AGL
scattered clouds at 10000 feet AGL
Weather: no significant weather observed at this time

METAR text: LTFJ 231320Z 18010KT 9999 FEW040 SCT100 15/04 Q1016 NOSIG RMK RWY24 19010KT
Conditions at: LTFJ (SABIHA GOKCEN , TR) observed 1320 UTC 23 January 2021
Temperature: 15.0°C (59°F)
Dewpoint: 4.0°C (39°F) [RH = 48%]
Pressure (altimeter): 30.00 inches Hg (1016.0 mb)
Winds: from the S (180 degrees) at 12 MPH (10 knots; 5.1 m/s)
Visibility: 6 or more miles (10+ km)
Ceiling: at least 12,000 feet AGL
Clouds: few clouds at 4000 feet AGL
scattered clouds at 10000 feet AGL
Weather: no significant weather observed at this time

METAR text: LTFJ 231250Z 18008KT 9999 FEW040 SCT100 15/04 Q1016 NOSIG RMK RWY24 19012KT
Conditions at: LTFJ (SABIHA GOKCEN , TR) observed 1250 UTC 23 January 2021
Temperature: 15.0°C (59°F)
Dewpoint: 4.0°C (39°F) [RH = 48%]
Pressure (altimeter): 30.00 inches Hg (1016.0 mb)
Winds: from the S (180 degrees) at 9 MPH (8 knots; 4.1 m/s)
Visibility: 6 or more miles (10+ km)
Ceiling: at least 12,000 feet AGL
Clouds: few clouds at 4000 feet AGL
scattered clouds at 10000 feet AGL
Weather: no significant weather observed at this time

METAR text: LTFJ 231220Z 19011KT 9999 FEW040 SCT100 15/04 Q1016 NOSIG RMK RWY24 20012KT
Conditions at: LTFJ (SABIHA GOKCEN , TR) observed 1220 UTC 23 January 2021
Temperature: 15.0°C (59°F)
Dewpoint: 4.0°C (39°F) [RH = 48%]
Pressure (altimeter): 30.00 inches Hg (1016.0 mb)
Winds: from the S (190 degrees) at 13 MPH (11 knots; 5.7 m/s)
Visibility: 6 or more miles (10+ km)
Ceiling: at least 12,000 feet AGL
Clouds: few clouds at 4000 feet AGL
scattered clouds at 10000 feet AGL
Weather: no significant weather observed at this time

METAR text: LTFJ 231150Z 20010KT 160V220 9999 FEW040 SCT100 16/04 Q1016 NOSIG RMK RWY24 19010KT
Conditions at: LTFJ (SABIHA GOKCEN , TR) observed 1150 UTC 23 January 2021
Temperature: 16.0°C (61°F)
Dewpoint: 4.0°C (39°F) [RH = 45%]
Pressure (altimeter): 30.00 inches Hg (1016.0 mb)
Winds: from the SSW (200 degrees) at 12 MPH (10 knots; 5.1 m/s)
Visibility: 6 or more miles (10+ km)
Ceiling: at least 12,000 feet AGL
Clouds: few clouds at 4000 feet AGL
scattered clouds at 10000 feet AGL
Weather: no significant weather observed at this time

METAR text: LTFJ 231120Z 20008KT 9999 FEW040 SCT100 15/04 Q1017 NOSIG RMK RWY24 19010KT
Conditions at: LTFJ (SABIHA GOKCEN , TR) observed 1120 UTC 23 January 2021
Temperature: 15.0°C (59°F)
Dewpoint: 4.0°C (39°F) [RH = 48%]
Pressure (altimeter): 30.03 inches Hg (1017.0 mb)
Winds: from the SSW (200 degrees) at 9 MPH (8 knots; 4.1 m/s)
Visibility: 6 or more miles (10+ km)
Ceiling: at least 12,000 feet AGL
Clouds: few clouds at 4000 feet AGL
scattered clouds at 10000 feet AGL
Weather: no significant weather observed at this time

METAR text: LTFJ 231050Z 19009KT 9999 FEW040 SCT100 15/04 Q1017 NOSIG RMK RWY24 20011KT
Conditions at: LTFJ (SABIHA GOKCEN , TR) observed 1050 UTC 23 January 2021
Temperature: 15.0°C (59°F)
Dewpoint: 4.0°C (39°F) [RH = 48%]
Pressure (altimeter): 30.03 inches Hg (1017.0 mb)
Winds: from the S (190 degrees) at 10 MPH (9 knots; 4.6 m/s)
Visibility: 6 or more miles (10+ km)
Ceiling: at least 12,000 feet AGL
Clouds: few clouds at 4000 feet AGL
scattered clouds at 10000 feet AGL
Weather: no significant weather observed at this time

METAR text: LTFJ 231020Z 19010KT 9999 FEW040 SCT100 15/04 Q1017 NOSIG RMK RWY24 19012KT
Conditions at: LTFJ (SABIHA GOKCEN , TR) observed 1020 UTC 23 January 2021
Temperature: 15.0°C (59°F)
Dewpoint: 4.0°C (39°F) [RH = 48%]
Pressure (altimeter): 30.03 inches Hg (1017.0 mb)
Winds: from the S (190 degrees) at 12 MPH (10 knots; 5.1 m/s)
Visibility: 6 or more miles (10+ km)
Ceiling: at least 12,000 feet AGL
Clouds: few clouds at 4000 feet AGL
scattered clouds at 10000 feet AGL
Weather: no significant weather observed at this time

METAR text: LTFJ 230950Z 18012KT 9999 FEW040 SCT100 14/03 Q1018 NOSIG RMK RWY24 19015KT
Conditions at: LTFJ (SABIHA GOKCEN , TR) observed 0950 UTC 23 January 2021
Temperature: 14.0°C (57°F)
Dewpoint: 3.0°C (37°F) [RH = 47%]
Pressure (altimeter): 30.06 inches Hg (1018.0 mb)
Winds: from the S (180 degrees) at 14 MPH (12 knots; 6.2 m/s)
Visibility: 6 or more miles (10+ km)
Ceiling: at least 12,000 feet AGL
Clouds: few clouds at 4000 feet AGL
scattered clouds at 10000 feet AGL
Weather: no significant weather observed at this time

METAR text: LTFJ 230920Z 20010KT 9999 FEW040 SCT100 14/04 Q1018 NOSIG RMK RWY24 19012KT
Conditions at: LTFJ (SABIHA GOKCEN , TR) observed 0920 UTC 23 January 2021
Temperature: 14.0°C (57°F)
Dewpoint: 4.0°C (39°F) [RH = 51%]
Pressure (altimeter): 30.06 inches Hg (1018.0 mb)
Winds: from the SSW (200 degrees) at 12 MPH (10 knots; 5.1 m/s)
Visibility: 6 or more miles (10+ km)
Ceiling: at least 12,000 feet AGL
Clouds: few clouds at 4000 feet AGL
scattered clouds at 10000 feet AGL
Weather: no significant weather observed at this time

METAR text: LTFJ 230850Z 17011KT 150V210 9999 FEW040 SCT100 14/04 Q1018 NOSIG RMK RWY24 18012KT
Conditions at: LTFJ (SABIHA GOKCEN , TR) observed 0850 UTC 23 January 2021
Temperature: 14.0°C (57°F)
Dewpoint: 4.0°C (39°F) [RH = 51%]
Pressure (altimeter): 30.06 inches Hg (1018.0 mb)
Winds: from the S (170 degrees) at 13 MPH (11 knots; 5.7 m/s)
Visibility: 6 or more miles (10+ km)
Ceiling: at least 12,000 feet AGL
Clouds: few clouds at 4000 feet AGL
scattered clouds at 10000 feet AGL
Weather: no significant weather observed at this time

METAR text: LTFJ 230820Z 19010KT 9999 FEW040 SCT100 14/04 Q1019 NOSIG RMK RWY24 17010KT
Conditions at: LTFJ (SABIHA GOKCEN , TR) observed 0820 UTC 23 January 2021
Temperature: 14.0°C (57°F)
Dewpoint: 4.0°C (39°F) [RH = 51%]
Pressure (altimeter): 30.09 inches Hg (1019.0 mb)
Winds: from the S (190 degrees) at 12 MPH (10 knots; 5.1 m/s)
Visibility: 6 or more miles (10+ km)
Ceiling: at least 12,000 feet AGL
Clouds: few clouds at 4000 feet AGL
scattered clouds at 10000 feet AGL
Weather: no significant weather observed at this time

METAR text: LTFJ 230750Z 19010KT 9999 FEW040 SCT100 13/04 Q1019 NOSIG RMK RWY24 19012KT
Conditions at: LTFJ (SABIHA GOKCEN , TR) observed 0750 UTC 23 January 2021
Temperature: 13.0°C (55°F)
Dewpoint: 4.0°C (39°F) [RH = 54%]
Pressure (altimeter): 30.09 inches Hg (1019.0 mb)
Winds: from the S (190 degrees) at 12 MPH (10 knots; 5.1 m/s)
Visibility: 6 or more miles (10+ km)
Ceiling: at least 12,000 feet AGL
Clouds: few clouds at 4000 feet AGL
scattered clouds at 10000 feet AGL
Weather: no significant weather observed at this time

METAR text: LTFJ 230720Z 18006KT 9999 FEW040 SCT100 12/04 Q1019 NOSIG RMK RWY24 17007KT
Conditions at: LTFJ (SABIHA GOKCEN , TR) observed 0720 UTC 23 January 2021
Temperature: 12.0°C (54°F)
Dewpoint: 4.0°C (39°F) [RH = 58%]
Pressure (altimeter): 30.09 inches Hg (1019.0 mb)
Winds: from the S (180 degrees) at 7 MPH (6 knots; 3.1 m/s)
Visibility: 6 or more miles (10+ km)
Ceiling: at least 12,000 feet AGL
Clouds: few clouds at 4000 feet AGL
scattered clouds at 10000 feet AGL
Weather: no significant weather observed at this time

METAR text: LTFJ 230650Z 20010KT 9999 FEW040 SCT100 12/04 Q1019 NOSIG RMK RWY24 21011KT
Conditions at: LTFJ (SABIHA GOKCEN , TR) observed 0650 UTC 23 January 2021
Temperature: 12.0°C (54°F)
Dewpoint: 4.0°C (39°F) [RH = 58%]
Pressure (altimeter): 30.09 inches Hg (1019.0 mb)
Winds: from the SSW (200 degrees) at 12 MPH (10 knots; 5.1 m/s)
Visibility: 6 or more miles (10+ km)
Ceiling: at least 12,000 feet AGL
Clouds: few clouds at 4000 feet AGL
scattered clouds at 10000 feet AGL
Weather: no significant weather observed at this time

METAR text: LTFJ 230620Z 21009KT 9999 FEW040 SCT100 11/04 Q1019 NOSIG RMK RWY24 20008KT
Conditions at: LTFJ (SABIHA GOKCEN , TR) observed 0620 UTC 23 January 2021
Temperature: 11.0°C (52°F)
Dewpoint: 4.0°C (39°F) [RH = 62%]
Pressure (altimeter): 30.09 inches Hg (1019.0 mb)
Winds: from the SSW (210 degrees) at 10 MPH (9 knots; 4.6 m/s)
Visibility: 6 or more miles (10+ km)
Ceiling: at least 12,000 feet AGL
Clouds: few clouds at 4000 feet AGL
scattered clouds at 10000 feet AGL
Weather: no significant weather observed at this time

METAR text: LTFJ 230550Z 20005KT 9999 FEW040 10/04 Q1019 NOSIG RMK RWY24 19008KT
Conditions at: LTFJ (SABIHA GOKCEN , TR) observed 0550 UTC 23 January 2021
Temperature: 10.0°C (50°F)
Dewpoint: 4.0°C (39°F) [RH = 66%]
Pressure (altimeter): 30.09 inches Hg (1019.0 mb)
Winds: from the SSW (200 degrees) at 6 MPH (5 knots; 2.6 m/s)
Visibility: 6 or more miles (10+ km)
Ceiling: at least 12,000 feet AGL
Clouds: few clouds at 4000 feet AGL
Weather: no significant weather observed at this time

METAR text: LTFJ 230520Z 20008KT 170V230 9999 FEW040 10/04 Q1019 NOSIG RMK RWY24 18009KT
Conditions at: LTFJ (SABIHA GOKCEN , TR) observed 0520 UTC 23 January 2021
Temperature: 10.0°C (50°F)
Dewpoint: 4.0°C (39°F) [RH = 66%]
Pressure (altimeter): 30.09 inches Hg (1019.0 mb)
Winds: from the SSW (200 degrees) at 9 MPH (8 knots; 4.1 m/s)
Visibility: 6 or more miles (10+ km)
Ceiling: at least 12,000 feet AGL
Clouds: few clouds at 4000 feet AGL
Weather: no significant weather observed at this time

METAR text: LTFJ 230450Z 20005KT 9999 FEW040 10/03 Q1019 NOSIG RMK RWY24 18009KT
Conditions at: LTFJ (SABIHA GOKCEN , TR) observed 0450 UTC 23 January 2021
Temperature: 10.0°C (50°F)
Dewpoint: 3.0°C (37°F) [RH = 62%]
Pressure (altimeter): 30.09 inches Hg (1019.0 mb)
Winds: from the SSW (200 degrees) at 6 MPH (5 knots; 2.6 m/s)
Visibility: 6 or more miles (10+ km)
Ceiling: at least 12,000 feet AGL
Clouds: few clouds at 4000 feet AGL
Weather: no significant weather observed at this time

METAR text: LTFJ 230420Z 20007KT 9999 FEW040 11/04 Q1019 NOSIG RMK RWY24 22003KT
Conditions at: LTFJ (SABIHA GOKCEN , TR) observed 0420 UTC 23 January 2021
Temperature: 11.0°C (52°F)
Dewpoint: 4.0°C (39°F) [RH = 62%]
Pressure (altimeter): 30.09 inches Hg (1019.0 mb)
Winds: from the SSW (200 degrees) at 8 MPH (7 knots; 3.6 m/s)
Visibility: 6 or more miles (10+ km)
Ceiling: at least 12,000 feet AGL
Clouds: few clouds at 4000 feet AGL
Weather: no significant weather observed at this time

METAR text: LTFJ 230350Z 19006KT 9999 FEW040 10/03 Q1019 NOSIG RMK RWY24 19008KT
Conditions at: LTFJ (SABIHA GOKCEN , TR) observed 0350 UTC 23 January 2021
Temperature: 10.0°C (50°F)
Dewpoint: 3.0°C (37°F) [RH = 62%]
Pressure (altimeter): 30.09 inches Hg (1019.0 mb)
Winds: from the S (190 degrees) at 7 MPH (6 knots; 3.1 m/s)
Visibility: 6 or more miles (10+ km)
Ceiling: at least 12,000 feet AGL
Clouds: few clouds at 4000 feet AGL
Weather: no significant weather observed at this time

METAR text: LTFJ 230320Z 20009KT 9999 FEW040 10/04 Q1019 NOSIG RMK RWY24 18010KT
Conditions at: LTFJ (SABIHA GOKCEN , TR) observed 0320 UTC 23 January 2021
Temperature: 10.0°C (50°F)
Dewpoint: 4.0°C (39°F) [RH = 66%]
Pressure (altimeter): 30.09 inches Hg (1019.0 mb)
Winds: from the SSW (200 degrees) at 10 MPH (9 knots; 4.6 m/s)
Visibility: 6 or more miles (10+ km)
Ceiling: at least 12,000 feet AGL
Clouds: few clouds at 4000 feet AGL
Weather: no significant weather observed at this time

METAR text: LTFJ 230250Z 20012KT 9999 FEW040 SCT100 10/04 Q1019 NOSIG RMK RWY24 20011KT
Conditions at: LTFJ (SABIHA GOKCEN , TR) observed 0250 UTC 23 January 2021
Temperature: 10.0°C (50°F)
Dewpoint: 4.0°C (39°F) [RH = 66%]
Pressure (altimeter): 30.09 inches Hg (1019.0 mb)
Winds: from the SSW (200 degrees) at 14 MPH (12 knots; 6.2 m/s)
Visibility: 6 or more miles (10+ km)
Ceiling: at least 12,000 feet AGL
Clouds: few clouds at 4000 feet AGL
scattered clouds at 10000 feet AGL
Weather: no significant weather observed at this time

METAR text: LTFJ 230220Z 20011KT 9999 FEW040 SCT100 11/04 Q1019 NOSIG RMK RWY24 20011KT
Conditions at: LTFJ (SABIHA GOKCEN , TR) observed 0220 UTC 23 January 2021
Temperature: 11.0°C (52°F)
Dewpoint: 4.0°C (39°F) [RH = 62%]
Pressure (altimeter): 30.09 inches Hg (1019.0 mb)
Winds: from the SSW (200 degrees) at 13 MPH (11 knots; 5.7 m/s)
Visibility: 6 or more miles (10+ km)
Ceiling: at least 12,000 feet AGL
Clouds: few clouds at 4000 feet AGL
scattered clouds at 10000 feet AGL
Weather: no significant weather observed at this time

METAR text: LTFJ 230150Z 20009KT 9999 SCT040 BKN100 11/03 Q1020 NOSIG RMK RWY24 20005KT
Conditions at: LTFJ (SABIHA GOKCEN , TR) observed 0150 UTC 23 January 2021
Temperature: 11.0°C (52°F)
Dewpoint: 3.0°C (37°F) [RH = 58%]
Pressure (altimeter): 30.12 inches Hg (1020.0 mb)
Winds: from the SSW (200 degrees) at 10 MPH (9 knots; 4.6 m/s)
Visibility: 6 or more miles (10+ km)
Ceiling: 10000 feet AGL
Clouds: scattered clouds at 4000 feet AGL
broken clouds at 10000 feet AGL
Weather: no significant weather observed at this time

METAR text: LTFJ 230120Z 20008KT 9999 SCT040 BKN100 11/03 Q1020 NOSIG RMK RWY24 VRB02KT
Conditions at: LTFJ (SABIHA GOKCEN , TR) observed 0120 UTC 23 January 2021
Temperature: 11.0°C (52°F)
Dewpoint: 3.0°C (37°F) [RH = 58%]
Pressure (altimeter): 30.12 inches Hg (1020.0 mb)
Winds: from the SSW (200 degrees) at 9 MPH (8 knots; 4.1 m/s)
Visibility: 6 or more miles (10+ km)
Ceiling: 10000 feet AGL
Clouds: scattered clouds at 4000 feet AGL
broken clouds at 10000 feet AGL
Weather: no significant weather observed at this time

METAR text: LTFJ 230050Z 19005KT 9999 SCT040 BKN100 10/04 Q1020 NOSIG RMK RWY24 19008KT
Conditions at: LTFJ (SABIHA GOKCEN , TR) observed 0050 UTC 23 January 2021
Temperature: 10.0°C (50°F)
Dewpoint: 4.0°C (39°F) [RH = 66%]
Pressure (altimeter): 30.12 inches Hg (1020.0 mb)
Winds: from the S (190 degrees) at 6 MPH (5 knots; 2.6 m/s)
Visibility: 6 or more miles (10+ km)
Ceiling: 10000 feet AGL
Clouds: scattered clouds at 4000 feet AGL
broken clouds at 10000 feet AGL
Weather: no significant weather observed at this time

Forecast for: LTFJ (SABIHA GOKCEN , TR)
Text: TAF LTFJ 241040Z 2412/2512 23016G26KT 9999 SCT040 BKN080
Forecast period: 1200 to 1300 UTC 24 January 2021
Forecast type: FROM: standard forecast or significant change
Winds: from the SW (230 degrees) at 18 MPH (16 knots; 8.2 m/s)
gusting to 30 MPH (26 knots; 13.4 m/s)
Visibility: 6 or more miles (10+ km)
Ceiling: 8000 feet AGL
Clouds: scattered clouds at 4000 feet AGL
broken clouds at 8000 feet AGL
Weather: no significant weather forecast for this period
Text: BECMG 2413/2416 19012KT
Forecast period: 1300 UTC 24 January 2021 to 1200 UTC 25 January 2021
Forecast type: BECOMING: Conditions expected to become as follows by 1600 UTC 24 January 2021
Winds: from the S (190 degrees) at 14 MPH (12 knots; 6.2 m/s)
Visibility: 6 or more miles (10+ km)
Ceiling: 8000 feet AGL
Clouds: scattered clouds at 4000 feet AGL
broken clouds at 8000 feet AGL
Weather: no significant weather forecast for this period
Text: PROB40
Forecast period: 0900 to 1200 UTC 25 January 2021
Forecast type: TEMPORARY: The following changes expected for less than half the time period
Winds: from the WSW (240 degrees) at 22 MPH (19 knots; 9.8 m/s)
gusting to 33 MPH (29 knots; 14.9 m/s)
Visibility: missing
Ceiling: 3000 feet AGL
Clouds: broken clouds at 3000 feet AGL
broken clouds at 9000 feet AGL
Weather: -SHRA  (light rain showers)